Time;durP1;ratioP1;P1;durP2;ratioP2;P2;SDS_P1;SDS_P2;PMS_P1;PMS_P2;Temp;Humidity;BMP_temperature;BMP_pressure;BME280_temperature;BME280_humidity;BME280_pressure;Samples;Min_cycle;Max_cycle;Signal;HPM_P1;HPM_P2
2021/12/22 00:01:39;;;;;;;1999.90;999.90;;;-1.20;99.90;;;;;;4954711;29;20206;-65
2021/12/22 00:04:04;;;;;;;1999.90;999.90;;;-1.10;99.90;;;;;;4954809;28;20559;-66
2021/12/22 00:06:33;;;;;;;1999.90;999.90;;;-1.20;99.90;;;;;;4954783;28;20168;-66
2021/12/22 00:08:59;;;;;;;1999.90;999.90;;;-1.10;99.90;;;;;;4954638;28;20206;-65
2021/12/22 00:11:25;;;;;;;1999.90;999.90;;;-1.10;99.90;;;;;;4954708;28;20182;-65
2021/12/22 00:13:51;;;;;;;1999.90;999.90;;;-1.10;99.90;;;;;;4954671;28;20179;-65
2021/12/22 00:16:17;;;;;;;1999.90;999.90;;;-1.10;99.90;;;;;;4954405;28;20186;-66
2021/12/22 00:18:43;;;;;;;1999.90;999.90;;;-1.10;99.90;;;;;;4954566;28;20714;-65
2021/12/22 00:21:09;;;;;;;1999.90;999.90;;;-1.10;99.90;;;;;;4954577;28;20194;-65
2021/12/22 00:23:35;;;;;;;1999.90;999.90;;;-1.10;99.90;;;;;;4954585;28;20178;-66
2021/12/22 00:26:00;;;;;;;1999.90;999.90;;;-1.20;99.90;;;;;;4954216;28;20422;-65
2021/12/22 00:28:26;;;;;;;1999.90;999.90;;;-1.20;99.90;;;;;;4954465;28;20513;-66
2021/12/22 00:30:52;;;;;;;1999.90;999.90;;;-1.30;99.90;;;;;;4954551;28;20175;-66
2021/12/22 00:33:19;;;;;;;1999.90;999.90;;;-1.20;99.90;;;;;;4954495;28;20407;-66
2021/12/22 00:35:45;;;;;;;1999.90;999.90;;;-1.20;99.90;;;;;;4954309;28;20187;-66
2021/12/22 00:38:18;;;;;;;1999.90;999.90;;;-1.30;99.90;;;;;;4954327;28;20230;-65
2021/12/22 00:40:44;;;;;;;1999.90;999.90;;;-1.30;99.90;;;;;;4954147;29;20256;-66
2021/12/22 00:43:11;;;;;;;1999.90;999.90;;;-1.40;99.90;;;;;;4954118;28;20171;-66
2021/12/22 00:45:37;;;;;;;1999.90;999.90;;;-1.40;99.90;;;;;;4954036;28;20262;-65
2021/12/22 00:48:06;;;;;;;1999.90;999.90;;;-1.50;99.90;;;;;;4954226;28;20219;-66
2021/12/22 00:50:33;;;;;;;1999.90;999.90;;;-1.40;99.90;;;;;;4954262;28;20229;-66
2021/12/22 00:52:59;;;;;;;1999.90;999.90;;;-1.40;99.90;;;;;;4954171;28;20585;-65
2021/12/22 00:55:25;;;;;;;1999.90;999.90;;;-1.40;99.90;;;;;;4953510;28;20163;-65
2021/12/22 00:57:50;;;;;;;1999.90;999.90;;;-1.40;99.90;;;;;;4953836;28;20199;-65
2021/12/22 01:00:18;;;;;;;1999.90;999.90;;;-1.30;99.90;;;;;;4954021;28;20182;-65
2021/12/22 01:02:45;;;;;;;1999.90;999.90;;;-1.40;99.90;;;;;;4954050;28;20493;-66
2021/12/22 01:05:14;;;;;;;1999.90;999.90;;;-1.50;99.90;;;;;;4953688;28;20221;-66
2021/12/22 01:07:41;;;;;;;1999.90;999.90;;;-1.60;99.90;;;;;;4953756;28;20195;-66
2021/12/22 01:10:08;;;;;;;1999.90;999.90;;;-1.50;99.90;;;;;;4953685;28;20234;-66
2021/12/22 01:12:33;;;;;;;1999.90;999.90;;;-1.60;99.90;;;;;;4953930;29;20218;-65
2021/12/22 01:14:59;;;;;;;1999.90;999.90;;;-1.50;99.90;;;;;;4953556;29;20211;-65
2021/12/22 01:17:25;;;;;;;1999.90;999.90;;;-1.60;99.90;;;;;;4953853;28;20182;-65
2021/12/22 01:20:00;;;;;;;1999.90;999.90;;;-1.70;99.90;;;;;;4953873;29;20418;-65
2021/12/22 01:22:47;;;;;;;1999.90;999.90;;;-1.70;99.90;;;;;;4953580;29;20199;-65
2021/12/22 01:25:15;;;;;;;1999.90;999.90;;;-1.60;99.90;;;;;;4953703;28;20258;-65
2021/12/22 01:27:43;;;;;;;1999.90;999.90;;;-1.60;99.90;;;;;;4953878;28;20196;-65
2021/12/22 01:30:14;;;;;;;1999.90;999.90;;;-1.50;99.90;;;;;;4953505;28;20177;-65
2021/12/22 01:32:41;;;;;;;1999.90;999.90;;;-1.50;99.90;;;;;;4953394;28;20656;-65
2021/12/22 01:35:10;;;;;;;1999.90;999.90;;;-1.60;99.90;;;;;;4953114;28;20187;-65
2021/12/22 01:37:35;;;;;;;1999.90;999.90;;;-1.60;99.90;;;;;;4953738;28;20202;-65
2021/12/22 01:40:01;;;;;;;1999.90;999.90;;;-1.60;99.90;;;;;;4953534;28;20171;-65
2021/12/22 01:42:28;;;;;;;1999.90;999.90;;;-1.60;99.90;;;;;;4953456;29;20206;-65
2021/12/22 01:50:38;;;;;;;1999.90;999.90;;;-1.50;99.90;;;;;;4953771;29;20179;-65
2021/12/22 01:53:22;;;;;;;1999.90;999.90;;;-1.40;99.90;;;;;;4953450;28;20178;-65
2021/12/22 01:56:17;;;;;;;1999.90;999.90;;;-1.50;99.90;;;;;;4953169;28;20687;-66
2021/12/22 01:58:45;;;;;;;1999.90;999.90;;;-1.50;99.90;;;;;;4953356;28;20215;-65
2021/12/22 02:01:11;;;;;;;1999.90;999.90;;;-1.60;99.90;;;;;;4953152;28;20221;-65
2021/12/22 02:03:38;;;;;;;1999.90;999.90;;;-1.60;99.90;;;;;;4953532;28;20250;-65
2021/12/22 02:06:05;;;;;;;1999.90;999.90;;;-1.50;99.90;;;;;;4953120;28;20649;-65
2021/12/22 02:08:32;;;;;;;1999.90;999.90;;;-1.50;99.90;;;;;;4953281;28;20704;-65
2021/12/22 02:10:58;;;;;;;1999.90;999.90;;;-1.60;99.90;;;;;;4953163;29;20207;-65
2021/12/22 02:13:29;;;;;;;1999.90;999.90;;;-1.60;99.90;;;;;;4953208;29;20229;-65
2021/12/22 02:15:55;;;;;;;1999.90;999.90;;;-1.60;99.90;;;;;;4953455;28;20160;-65
2021/12/22 02:18:21;;;;;;;1999.90;999.90;;;-1.60;99.90;;;;;;4953007;28;20194;-65
2021/12/22 02:20:49;;;;;;;1999.90;999.90;;;-1.60;99.90;;;;;;4952935;28;20451;-66
2021/12/22 02:23:16;;;;;;;1999.90;999.90;;;-1.70;99.90;;;;;;4952347;28;20562;-66
2021/12/22 02:25:50;;;;;;;1999.90;999.90;;;-1.70;99.90;;;;;;4952622;28;20250;-66
2021/12/22 02:28:24;;;;;;;1999.90;999.90;;;-1.80;99.90;;;;;;4952961;28;20552;-65
2021/12/22 02:30:51;;;;;;;1999.90;999.90;;;-1.80;99.90;;;;;;4953268;28;20186;-65
2021/12/22 02:33:23;;;;;;;1999.90;999.90;;;-1.70;99.90;;;;;;4953035;28;20257;-66
2021/12/22 02:38:28;;;;;;;1999.90;999.90;;;-1.70;99.90;;;;;;4952913;28;20203;-66
2021/12/22 02:40:54;;;;;;;1999.90;999.90;;;-1.70;99.90;;;;;;4952804;29;20195;-66
2021/12/22 02:43:22;;;;;;;1999.90;999.90;;;-1.60;99.90;;;;;;4952894;28;20446;-65
2021/12/22 02:45:49;;;;;;;1999.90;999.90;;;-1.60;99.90;;;;;;4952513;28;20187;-66
2021/12/22 02:48:15;;;;;;;1999.90;999.90;;;-1.60;99.90;;;;;;4952801;28;20730;-65
2021/12/22 02:50:41;;;;;;;1999.90;999.90;;;-1.60;99.90;;;;;;4952708;28;20171;-65
2021/12/22 02:53:13;;;;;;;1999.90;999.90;;;-1.60;99.90;;;;;;4952554;28;20825;-66
2021/12/22 02:56:02;;;;;;;1999.90;999.90;;;-1.70;99.90;;;;;;4952251;28;20316;-65
2021/12/22 03:06:23;;;;;;;1999.90;999.90;;;-1.60;99.90;;;;;;4952205;29;20195;-66
2021/12/22 03:08:48;;;;;;;1999.90;999.90;;;-1.60;99.90;;;;;;4952301;28;20203;-65
2021/12/22 03:11:14;;;;;;;1999.90;999.90;;;-1.60;99.90;;;;;;4952148;29;20189;-65
2021/12/22 03:13:39;;;;;;;1999.90;999.90;;;-1.70;99.90;;;;;;4952441;28;20262;-66
2021/12/22 03:16:05;;;;;;;1999.90;999.90;;;-1.70;99.90;;;;;;4952122;29;20171;-66
2021/12/22 03:18:31;;;;;;;1999.90;999.90;;;-1.80;99.90;;;;;;4952207;28;20329;-66
2021/12/22 03:21:07;;;;;;;1999.90;999.90;;;-1.90;99.90;;;;;;4952065;29;20237;-66
2021/12/22 03:23:33;;;;;;;1999.90;999.90;;;-1.80;99.90;;;;;;4952366;28;20189;-66
2021/12/22 03:25:59;;;;;;;1999.90;999.90;;;-1.80;99.90;;;;;;4952031;28;20175;-65
2021/12/22 03:28:25;;;;;;;1999.90;999.90;;;-1.90;99.90;;;;;;4952132;28;20747;-66
2021/12/22 03:30:53;;;;;;;1999.90;999.90;;;-1.90;99.90;;;;;;4952401;28;20258;-65
2021/12/22 03:33:18;;;;;;;1999.90;999.90;;;-1.90;99.90;;;;;;4952111;28;20924;-66
2021/12/22 03:35:44;;;;;;;1999.90;999.90;;;-1.90;99.90;;;;;;4951801;28;20240;-66
2021/12/22 03:38:10;;;;;;;1999.90;999.90;;;-1.90;99.90;;;;;;4952047;28;20282;-66
2021/12/22 03:40:36;;;;;;;1999.90;999.90;;;-1.80;99.90;;;;;;4952466;28;20179;-65
2021/12/22 03:43:01;;;;;;;1999.90;999.90;;;-1.90;99.90;;;;;;4951973;29;20692;-66
2021/12/22 03:45:27;;;;;;;1999.90;999.90;;;-1.80;99.90;;;;;;4952294;28;20825;-66
2021/12/22 03:47:53;;;;;;;1999.90;999.90;;;-1.80;99.90;;;;;;4952005;28;20195;-65
2021/12/22 03:50:18;;;;;;;1999.90;999.90;;;-1.70;99.90;;;;;;4952265;29;20561;-66
2021/12/22 03:52:45;;;;;;;1999.90;999.90;;;-1.80;99.90;;;;;;4952286;29;20502;-66
2021/12/22 03:55:11;;;;;;;1999.90;999.90;;;-1.90;99.90;;;;;;4951532;29;20174;-66
2021/12/22 03:57:37;;;;;;;1999.90;999.90;;;-1.90;99.90;;;;;;4951843;28;20301;-66
2021/12/22 04:00:06;;;;;;;1999.90;999.90;;;-1.90;99.90;;;;;;4952025;28;20187;-65
2021/12/22 04:02:32;;;;;;;1999.90;999.90;;;-1.90;99.90;;;;;;4952371;28;20711;-66
2021/12/22 04:04:58;;;;;;;1999.90;999.90;;;-1.90;99.90;;;;;;4951732;28;20539;-66
2021/12/22 04:07:24;;;;;;;1999.90;999.90;;;-1.90;99.90;;;;;;4951918;28;20182;-66
2021/12/22 04:09:49;;;;;;;1999.90;999.90;;;-1.90;99.90;;;;;;4952370;28;20193;-66
2021/12/22 04:12:15;;;;;;;1999.90;999.90;;;-1.90;99.90;;;;;;4952193;29;20178;-66
2021/12/22 04:14:40;;;;;;;1999.90;999.90;;;-1.90;99.90;;;;;;4951793;29;20175;-66
2021/12/22 04:17:06;;;;;;;1999.90;999.90;;;-1.80;99.90;;;;;;4951952;29;20175;-66
2021/12/22 04:19:32;;;;;;;1999.90;999.90;;;-1.80;99.90;;;;;;4952177;28;20191;-66
2021/12/22 04:21:57;;;;;;;1999.90;999.90;;;-1.80;99.90;;;;;;4952231;28;20202;-66
2021/12/22 04:24:23;;;;;;;1999.90;999.90;;;-1.80;99.90;;;;;;4951447;29;20191;-65
2021/12/22 04:26:52;;;;;;;1999.90;999.90;;;-1.80;99.90;;;;;;4951479;28;20163;-66
2021/12/22 04:29:18;;;;;;;1999.90;999.90;;;-1.90;99.90;;;;;;4951404;28;20194;-66
2021/12/22 04:31:44;;;;;;;1999.90;999.90;;;-1.90;99.90;;;;;;4951718;28;20187;-66
2021/12/22 04:34:09;;;;;;;1999.90;999.90;;;-1.90;99.90;;;;;;4951194;29;20183;-66
2021/12/22 04:36:37;;;;;;;1999.90;999.90;;;-1.90;99.90;;;;;;4995403;23;20313;-67
2021/12/22 04:39:04;;;;;;;1999.90;999.90;;;-1.90;99.90;;;;;;4989315;28;20260;-66
2021/12/22 04:41:30;;;;;;;1999.90;999.90;;;-1.90;99.90;;;;;;4989067;28;20601;-67
2021/12/22 04:43:55;;;;;;;1999.90;999.90;;;-2.00;99.90;;;;;;4989067;28;20166;-66
2021/12/22 04:46:21;;;;;;;1999.90;999.90;;;-2.00;99.90;;;;;;4991095;28;20193;-67
2021/12/22 04:48:47;;;;;;;1999.90;999.90;;;-2.00;99.90;;;;;;4992426;28;20177;-67
2021/12/22 04:51:22;;;;;;;1999.90;999.90;;;-2.00;99.90;;;;;;4992460;28;20465;-67
2021/12/22 04:53:53;;;;;;;1999.90;999.90;;;-2.00;99.90;;;;;;4992475;28;20210;-67
2021/12/22 04:56:19;;;;;;;1999.90;999.90;;;-2.00;99.90;;;;;;4991951;28;20201;-67
2021/12/22 04:58:45;;;;;;;1999.90;999.90;;;-2.00;99.90;;;;;;4992222;28;20204;-67
2021/12/22 05:01:10;;;;;;;1999.90;999.90;;;-1.90;99.90;;;;;;4992159;28;20264;-67
2021/12/22 05:03:36;;;;;;;1999.90;999.90;;;-2.00;99.90;;;;;;4992171;28;20534;-67
2021/12/22 05:06:02;;;;;;;1999.90;999.90;;;-2.00;99.90;;;;;;4991764;28;20441;-67
2021/12/22 05:08:29;;;;;;;1999.90;999.90;;;-2.20;99.90;;;;;;4992080;28;20178;-67
2021/12/22 05:10:55;;;;;;;1999.90;999.90;;;-2.20;99.90;;;;;;4992074;28;20210;-67
2021/12/22 05:13:21;;;;;;;1999.90;999.90;;;-2.20;99.90;;;;;;4992053;28;20202;-67
2021/12/22 05:15:46;;;;;;;1999.90;999.90;;;-2.20;99.90;;;;;;4991643;28;20196;-67
2021/12/22 05:18:23;;;;;;;1999.90;999.90;;;-2.20;99.90;;;;;;4991937;28;20235;-67
2021/12/22 05:20:49;;;;;;;1999.90;999.90;;;-2.10;99.90;;;;;;4991889;28;20219;-67
2021/12/22 05:23:16;;;;;;;1999.90;999.90;;;-2.10;99.90;;;;;;4991873;28;20196;-67
2021/12/22 05:25:42;;;;;;;1999.90;999.90;;;-2.10;99.90;;;;;;4991430;28;20625;-67
2021/12/22 05:28:07;;;;;;;1999.90;999.90;;;-2.10;99.90;;;;;;4991774;28;20206;-67
2021/12/22 05:30:33;;;;;;;1999.90;999.90;;;-2.10;99.90;;;;;;4991750;28;20170;-67
2021/12/22 05:32:58;;;;;;;1999.90;999.90;;;-2.20;99.90;;;;;;4991741;28;20166;-67
2021/12/22 05:35:24;;;;;;;1999.90;999.90;;;-2.20;99.90;;;;;;4991286;28;20206;-67
2021/12/22 05:37:50;;;;;;;1999.90;999.90;;;-2.20;99.90;;;;;;4991758;28;20181;-67
2021/12/22 05:40:16;;;;;;;1999.90;999.90;;;-2.30;99.90;;;;;;4991684;28;20166;-67
2021/12/22 05:42:42;;;;;;;1999.90;999.90;;;-2.40;99.90;;;;;;4991606;28;20201;-67
2021/12/22 05:45:08;;;;;;;1999.90;999.90;;;-2.40;99.90;;;;;;4991275;28;20498;-67
2021/12/22 05:47:34;;;;;;;1999.90;999.90;;;-2.40;99.90;;;;;;4991692;28;20184;-67
2021/12/22 05:50:03;;;;;;;1999.90;999.90;;;-2.40;99.90;;;;;;4991520;28;20174;-67
2021/12/22 05:52:29;;;;;;;1999.90;999.90;;;-2.40;99.90;;;;;;4991509;28;20253;-67
2021/12/22 05:54:55;;;;;;;1999.90;999.90;;;-2.30;99.90;;;;;;4990844;28;20360;-67
2021/12/22 05:57:20;;;;;;;1999.90;999.90;;;-2.30;99.90;;;;;;4990126;28;20209;-67
2021/12/22 05:59:46;;;;;;;1999.90;999.90;;;-2.20;99.90;;;;;;4991387;28;20170;-67
2021/12/22 06:02:11;;;;;;;1999.90;999.90;;;-2.20;99.90;;;;;;4991191;28;20208;-67
2021/12/22 06:04:37;;;;;;;1999.90;999.90;;;-2.20;99.90;;;;;;4990967;28;20643;-67
2021/12/22 06:07:03;;;;;;;1999.90;999.90;;;-2.10;99.90;;;;;;4991243;28;20169;-67
2021/12/22 06:09:28;;;;;;;1999.90;999.90;;;-2.10;99.90;;;;;;4991158;28;20239;-67
2021/12/22 06:11:54;;;;;;;1999.90;999.90;;;-2.10;99.90;;;;;;4991174;28;20180;-67
2021/12/22 06:14:19;;;;;;;1999.90;999.90;;;-2.10;99.90;;;;;;4990833;28;20706;-67
2021/12/22 06:16:45;;;;;;;1999.90;999.90;;;-2.10;99.90;;;;;;4991053;28;20193;-66
2021/12/22 06:19:13;;;;;;;1999.90;999.90;;;-2.10;99.90;;;;;;4991122;28;20213;-66
2021/12/22 06:21:38;;;;;;;1999.90;999.90;;;-2.10;99.90;;;;;;4990914;28;20194;-66
2021/12/22 06:24:04;;;;;;;1999.90;999.90;;;-2.10;99.90;;;;;;4990654;28;20253;-66
2021/12/22 06:26:30;;;;;;;1999.90;999.90;;;-2.10;99.90;;;;;;4990875;28;20193;-67
2021/12/22 06:28:56;;;;;;;1999.90;999.90;;;-2.20;99.90;;;;;;4991033;28;20173;-66
2021/12/22 06:31:21;;;;;;;1999.90;999.90;;;-2.10;99.90;;;;;;4990878;28;20174;-66
2021/12/22 06:33:47;;;;;;;1999.90;999.90;;;-2.10;99.90;;;;;;4990890;28;20259;-66
2021/12/22 06:36:13;;;;;;;1999.90;999.90;;;-2.10;99.90;;;;;;4990499;28;20212;-66
2021/12/22 06:38:39;;;;;;;1999.90;999.90;;;-2.20;99.90;;;;;;4990795;28;20711;-66
2021/12/22 06:41:05;;;;;;;1999.90;999.90;;;-2.20;99.90;;;;;;4990609;28;20198;-66
2021/12/22 06:43:31;;;;;;;1999.90;999.90;;;-2.10;99.90;;;;;;4990750;28;20247;-66
2021/12/22 06:45:56;;;;;;;1999.90;999.90;;;-2.10;99.90;;;;;;4990423;28;20436;-66
2021/12/22 06:48:22;;;;;;;1999.90;999.90;;;-2.10;99.90;;;;;;4990658;28;20296;-66
2021/12/22 06:50:47;;;;;;;1999.90;999.90;;;-2.10;99.90;;;;;;4990573;28;20170;-66
2021/12/22 06:53:13;;;;;;;1999.90;999.90;;;-2.10;99.90;;;;;;4990584;28;20662;-66
2021/12/22 06:55:38;;;;;;;1999.90;999.90;;;-2.00;99.90;;;;;;4990106;28;20196;-66
2021/12/22 06:58:04;;;;;;;1999.90;999.90;;;-2.10;99.90;;;;;;4990547;28;20189;-66
2021/12/22 07:00:31;;;;;;;1999.90;999.90;;;-2.10;99.90;;;;;;4990437;28;20174;-66
2021/12/22 07:02:57;;;;;;;1999.90;999.90;;;-2.20;99.90;;;;;;4990493;28;20525;-66
2021/12/22 07:05:23;;;;;;;1999.90;999.90;;;-2.20;99.90;;;;;;4990122;28;20202;-66
2021/12/22 07:07:49;;;;;;;1999.90;999.90;;;-2.10;99.90;;;;;;4990022;28;20658;-66
2021/12/22 07:10:15;;;;;;;1999.90;999.90;;;-2.10;99.90;;;;;;4990231;28;20473;-66
2021/12/22 07:12:45;;;;;;;1999.90;999.90;;;-2.20;99.90;;;;;;4990212;28;20256;-66
2021/12/22 07:15:13;;;;;;;1999.90;999.90;;;-2.10;99.90;;;;;;4989863;28;20551;-66
2021/12/22 07:17:39;;;;;;;1999.90;999.90;;;-2.30;99.90;;;;;;4990187;28;20181;-66
2021/12/22 07:20:05;;;;;;;1999.90;999.90;;;-2.30;99.90;;;;;;4990237;28;20549;-66
2021/12/22 07:22:32;;;;;;;1999.90;999.90;;;-2.30;99.90;;;;;;4990011;28;20205;-66
2021/12/22 07:24:57;;;;;;;1999.90;999.90;;;-2.20;99.90;;;;;;4989713;28;20694;-66
2021/12/22 07:27:23;;;;;;;1999.90;999.90;;;-2.20;99.90;;;;;;4990102;28;20174;-66
2021/12/22 07:29:49;;;;;;;1999.90;999.90;;;-2.20;99.90;;;;;;4990062;28;20178;-66
2021/12/22 07:32:14;;;;;;;1999.90;999.90;;;-2.30;99.90;;;;;;4990025;28;20184;-66
2021/12/22 07:34:50;;;;;;;1999.90;999.90;;;-2.20;99.90;;;;;;4989574;28;20211;-66
2021/12/22 07:37:39;;;;;;;1999.90;999.90;;;-2.20;99.90;;;;;;4990009;28;20227;-66
2021/12/22 07:40:07;;;;;;;1999.90;999.90;;;-2.20;99.90;;;;;;4989832;28;20174;-66
2021/12/22 07:42:33;;;;;;;1999.90;999.90;;;-2.20;99.90;;;;;;4989887;28;20220;-66
2021/12/22 07:44:58;;;;;;;1999.90;999.90;;;-2.20;99.90;;;;;;4989530;28;20729;-66
2021/12/22 07:47:24;;;;;;;1999.90;999.90;;;-2.20;99.90;;;;;;4989785;28;20165;-66
2021/12/22 07:49:50;;;;;;;1999.90;999.90;;;-2.10;99.90;;;;;;4989844;28;20170;-66
2021/12/22 07:52:16;;;;;;;1999.90;999.90;;;-2.00;99.90;;;;;;4989728;28;20695;-66
2021/12/22 07:54:42;;;;;;;1999.90;999.90;;;-2.00;99.90;;;;;;4989379;28;20186;-66
2021/12/22 07:57:07;;;;;;;1999.90;999.90;;;-1.90;99.90;;;;;;4989967;28;20424;-66
2021/12/22 07:59:33;;;;;;;1999.90;999.90;;;-1.90;99.90;;;;;;4989692;28;20169;-66
2021/12/22 08:01:59;;;;;;;1999.90;999.90;;;-2.00;99.90;;;;;;4989544;28;20237;-66
2021/12/22 08:04:25;;;;;;;1999.90;999.90;;;-2.00;99.90;;;;;;4989403;28;20448;-66
2021/12/22 08:06:51;;;;;;;1999.90;999.90;;;-2.00;99.90;;;;;;4989313;28;20246;-66
2021/12/22 08:09:16;;;;;;;1999.90;999.90;;;-1.90;99.90;;;;;;4989620;28;20405;-66
2021/12/22 08:11:42;;;;;;;1999.90;999.90;;;-1.90;99.90;;;;;;4989640;28;20416;-66
2021/12/22 08:14:08;;;;;;;1999.90;999.90;;;-1.80;99.90;;;;;;4989238;28;20615;-66
2021/12/22 08:16:33;;;;;;;1999.90;999.90;;;-1.80;99.90;;;;;;4989228;28;20429;-66
2021/12/22 08:18:59;;;;;;;1999.90;999.90;;;-1.80;99.90;;;;;;4989322;28;20178;-66
2021/12/22 08:21:25;;;;;;;1999.90;999.90;;;-1.80;99.90;;;;;;4991494;28;20705;-66
2021/12/22 08:23:51;;;;;;;1999.90;999.90;;;-1.80;99.90;;;;;;4992641;28;20165;-66
2021/12/22 08:26:17;;;;;;;1999.90;999.90;;;-1.80;99.90;;;;;;4992467;28;20436;-66
2021/12/22 08:28:46;;;;;;;1999.90;999.90;;;-1.80;99.90;;;;;;4992656;28;20409;-66
2021/12/22 08:31:12;;;;;;;1999.90;999.90;;;-1.70;99.90;;;;;;4992633;28;20416;-67
2021/12/22 08:33:44;;;;;;;1999.90;999.90;;;-1.60;99.90;;;;;;4992584;28;20198;-66
2021/12/22 08:38:54;;;;;;;1999.90;999.90;;;-1.50;99.90;;;;;;4992900;28;20216;-66
2021/12/22 08:41:20;;;;;;;1999.90;999.90;;;-1.50;99.90;;;;;;4992593;28;20190;-66
2021/12/22 08:43:46;;;;;;;1999.90;999.90;;;-1.40;99.90;;;;;;4992568;28;20169;-66
2021/12/22 08:46:11;;;;;;;1999.90;999.90;;;-1.40;99.90;;;;;;4992193;28;20193;-66
2021/12/22 08:48:37;;;;;;;1999.90;999.90;;;-1.30;99.90;;;;;;4992445;28;20208;-66
2021/12/22 08:51:03;;;;;;;1999.90;999.90;;;-1.30;99.90;;;;;;4992400;28;20678;-66
2021/12/22 08:53:28;;;;;;;1999.90;999.90;;;-1.20;99.90;;;;;;4992358;28;20540;-67
2021/12/22 08:55:54;;;;;;;1999.90;999.90;;;-1.10;99.90;;;;;;4992028;28;20216;-66
2021/12/22 08:58:20;;;;;;;1999.90;999.90;;;-1.00;99.90;;;;;;4992348;28;20173;-67
2021/12/22 09:00:46;;;;;;;1999.90;999.90;;;-1.00;99.90;;;;;;4992161;28;20223;-66
2021/12/22 09:03:11;;;;;;;1999.90;999.90;;;-0.90;99.90;;;;;;4992273;28;20492;-67
2021/12/22 09:05:37;;;;;;;1999.90;999.90;;;-0.80;99.90;;;;;;4991888;28;20239;-67
2021/12/22 09:08:03;;;;;;;1999.90;999.90;;;-0.70;99.90;;;;;;4992235;28;20591;-66
2021/12/22 09:10:28;;;;;;;1999.90;999.90;;;-0.70;99.90;;;;;;4992188;28;20165;-66
2021/12/22 09:12:54;;;;;;;1999.90;999.90;;;-0.60;99.90;;;;;;4992134;28;20405;-66
2021/12/22 09:15:20;;;;;;;1999.90;999.90;;;-0.50;99.90;;;;;;5117072;23;20219;-67
2021/12/22 09:17:46;;;;;;;1999.90;999.90;;;-0.50;99.90;;;;;;4992214;28;20169;-66
2021/12/22 09:20:12;;;;;;;1999.90;999.90;;;-0.40;99.90;;;;;;4991935;28;20592;-66
2021/12/22 09:22:38;;;;;;;1999.90;999.90;;;-0.30;99.90;;;;;;4991707;28;20209;-66
2021/12/22 09:25:04;;;;;;;1999.90;999.90;;;-0.20;99.90;;;;;;4991810;28;20189;-66
2021/12/22 09:27:30;;;;;;;1999.90;999.90;;;-0.10;99.90;;;;;;4991965;28;20663;-66
2021/12/22 09:29:55;;;;;;;1999.90;999.90;;;-0.10;99.90;;;;;;4991875;28;20169;-66
2021/12/22 09:32:21;;;;;;;1999.90;999.90;;;0.10;99.90;;;;;;4991685;28;20719;-67
2021/12/22 09:39:57;;;;;;;1999.90;999.90;;;0.20;99.90;;;;;;4668738;26;20245;-67
2021/12/22 09:42:23;;;;;;;1999.90;999.90;;;0.30;99.90;;;;;;4972075;28;20236;-67
2021/12/22 09:44:50;;;;;;;1999.90;999.90;;;0.50;99.90;;;;;;4971852;28;20194;-67
2021/12/22 09:47:25;;;;;;;1999.90;999.90;;;0.60;99.90;;;;;;4972183;28;20535;-67
2021/12/22 09:50:09;;;;;;;1999.90;999.90;;;0.70;99.90;;;;;;4972122;28;20558;-67
2021/12/22 09:52:36;;;;;;;1999.90;999.90;;;0.80;99.90;;;;;;4971926;28;20205;-67
2021/12/22 10:00:22;;;;;;;1999.90;999.90;;;1.00;99.90;;;;;;1425343;26;20227;-67
2021/12/22 10:02:48;;;;;;;1999.90;999.90;;;1.00;99.90;;;;;;4971816;28;20582;-67
2021/12/22 10:05:13;;;;;;;1999.90;999.90;;;1.10;99.90;;;;;;4971550;28;20289;-67
2021/12/22 10:07:41;;;;;;;1999.90;999.90;;;1.10;99.90;;;;;;4971878;28;20167;-67
2021/12/22 10:10:09;;;;;;;1999.90;999.90;;;1.10;99.90;;;;;;4971943;28;20178;-67
2021/12/22 10:12:35;;;;;;;1999.90;999.90;;;1.20;99.90;;;;;;4965795;28;20194;-67
2021/12/22 10:15:05;;;;;;;1999.90;999.90;;;1.20;99.90;;;;;;4964605;28;20209;-67
2021/12/22 10:17:42;;;;;;;1999.90;999.90;;;1.20;99.90;;;;;;4965877;28;20508;-67
2021/12/22 10:20:17;;;;;;;1999.90;999.90;;;1.30;99.90;;;;;;4970289;28;20170;-67
2021/12/22 10:22:46;;;;;;;1999.90;999.90;;;1.40;99.90;;;;;;4970501;28;20198;-67
2021/12/22 10:39:01;;;;;;;1999.90;999.90;;;1.80;99.90;;;;;;5091912;28;20247;-67
2021/12/22 10:41:31;;;;;;;1999.90;999.90;;;1.90;99.90;;;;;;5091288;28;20663;-67
2021/12/22 10:43:58;;;;;;;1999.90;999.90;;;2.10;99.90;;;;;;5091116;28;20175;-67
2021/12/22 10:46:32;;;;;;;1999.90;999.90;;;2.30;99.90;;;;;;5091539;28;20643;-67
2021/12/22 10:49:14;;;;;;;1999.90;999.90;;;2.40;99.90;;;;;;5091289;28;20154;-66
2021/12/22 10:51:56;;;;;;;1999.90;999.90;;;2.50;99.90;;;;;;5070920;28;20181;-65
2021/12/22 10:54:39;;;;;;;1999.90;999.90;;;2.70;99.90;;;;;;5071502;28;20201;-66
2021/12/22 10:57:10;;;;;;;1999.90;999.90;;;2.70;99.90;;;;;;5071301;28;20163;-67
2021/12/22 10:59:49;;;;;;;1999.90;999.90;;;2.90;99.90;;;;;;5071206;28;20175;-66
2021/12/22 11:02:31;;;;;;;1999.90;999.90;;;2.80;99.90;;;;;;5078451;28;20193;-66
2021/12/22 11:04:58;;;;;;;1999.90;999.90;;;2.90;99.90;;;;;;5070413;28;20203;-66
2021/12/22 11:07:29;;;;;;;1999.90;999.90;;;3.00;99.90;;;;;;5071020;28;20189;-67
2021/12/22 11:09:55;;;;;;;1999.90;999.90;;;2.90;99.90;;;;;;5070440;28;20197;-67
2021/12/22 11:12:37;;;;;;;1999.90;999.90;;;3.00;99.90;;;;;;5070860;28;20725;-67
2021/12/22 11:15:05;;;;;;;1999.90;999.90;;;3.20;99.90;;;;;;5070314;28;20205;-67
2021/12/22 11:17:31;;;;;;;1999.90;999.90;;;3.40;99.90;;;;;;5070334;28;20245;-67
2021/12/22 11:20:04;;;;;;;1999.90;999.90;;;3.70;99.90;;;;;;5070909;28;20591;-67
2021/12/22 11:23:09;;;;;;;1999.90;999.90;;;4.10;99.90;;;;;;5070602;28;20235;-67
2021/12/22 11:25:37;;;;;;;1999.90;999.90;;;4.30;99.90;;;;;;5069751;28;20275;-67
2021/12/22 11:28:03;;;;;;;1999.90;999.90;;;4.40;99.90;;;;;;5070669;28;20209;-67
2021/12/22 11:30:28;;;;;;;1999.90;999.90;;;4.60;99.90;;;;;;5070956;28;20536;-67
2021/12/22 11:32:55;;;;;;;1999.90;999.90;;;4.90;99.90;;;;;;5070184;28;20167;-66
2021/12/22 11:35:23;;;;;;;1999.90;999.90;;;5.30;99.90;;;;;;5070151;28;21000;-67
2021/12/22 11:37:49;;;;;;;1999.90;999.90;;;5.50;99.90;;;;;;5070472;28;20405;-66
2021/12/22 11:40:17;;;;;;;1999.90;999.90;;;5.80;99.90;;;;;;5070235;28;20404;-67
2021/12/22 11:42:43;;;;;;;1999.90;999.90;;;5.90;99.90;;;;;;5070820;28;20571;-66
2021/12/22 11:45:19;;;;;;;1999.90;999.90;;;6.00;99.90;;;;;;5069910;28;20429;-66
2021/12/22 11:47:48;;;;;;;1999.90;999.90;;;6.20;99.90;;;;;;5070050;28;20175;-66
2021/12/22 11:50:27;;;;;;;1999.90;999.90;;;6.50;99.90;;;;;;5070767;28;20484;-67
2021/12/22 11:53:00;;;;;;;1999.90;999.90;;;6.60;99.90;;;;;;5070505;28;20436;-66
2021/12/22 11:55:36;;;;;;;1999.90;999.90;;;6.70;99.90;;;;;;5071107;28;20453;-66
2021/12/22 11:58:21;;;;;;;1999.90;999.90;;;6.70;99.90;;;;;;5074570;28;20381;-67
2021/12/22 12:01:10;;;;;;;1999.90;999.90;;;6.30;99.90;;;;;;5074498;28;20403;-66
2021/12/22 12:03:41;;;;;;;1999.90;999.90;;;6.10;99.90;;;;;;5074431;28;20468;-66
2021/12/22 12:06:23;;;;;;;1999.90;999.90;;;5.90;99.90;;;;;;5074118;28;20436;-67
2021/12/22 12:09:09;;;;;;;1999.90;999.90;;;5.90;99.90;;;;;;5074460;28;20418;-66
2021/12/22 12:23:27;;;;;;;1999.90;999.90;;;8.10;99.90;;;;;;5074129;28;20499;-67
2021/12/22 12:25:53;;;;;;;1999.90;999.90;;;9.20;99.90;;;;;;5073217;28;20513;-67
2021/12/22 12:28:20;;;;;;;1999.90;999.90;;;10.00;99.90;;;;;;5074095;28;20408;-67
2021/12/22 12:30:48;;;;;;;1999.90;999.90;;;10.70;99.90;;;;;;5074019;28;20401;-67
2021/12/22 12:33:42;;;;;;;1999.90;999.90;;;11.00;99.90;;;;;;5073433;28;20750;-67
2021/12/22 12:36:11;;;;;;;1999.90;999.90;;;11.40;99.90;;;;;;5073618;28;20424;-67
2021/12/22 12:38:40;;;;;;;1999.90;999.90;;;11.50;99.90;;;;;;5073499;28;20863;-67
2021/12/22 12:41:12;;;;;;;1999.90;999.90;;;11.70;99.90;;;;;;5073943;28;20824;-67
2021/12/22 12:43:48;;;;;;;1999.90;999.90;;;11.60;99.90;;;;;;5073582;28;20405;-67
2021/12/22 12:48:50;;;;;;;1999.90;999.90;;;10.80;99.90;;;;;;5073735;28;20415;-67
2021/12/22 12:51:46;;;;;;;1999.90;999.90;;;10.70;99.90;;;;;;5073695;28;20495;-67
2021/12/22 12:54:18;;;;;;;1999.90;999.90;;;10.80;99.90;;;;;;5072616;28;20506;-67
2021/12/22 12:56:47;;;;;;;1999.90;999.90;;;11.00;99.90;;;;;;5073437;28;20443;-67
2021/12/22 12:59:15;;;;;;;1999.90;999.90;;;11.10;99.90;;;;;;5073329;28;20417;-67
2021/12/22 13:01:47;;;;;;;1999.90;999.90;;;11.30;99.90;;;;;;5072776;28;20494;-67
2021/12/22 13:04:18;;;;;;;1999.90;999.90;;;11.50;99.90;;;;;;5073167;28;20405;-67